Time;durP1;ratioP1;P1;durP2;ratioP2;P2;SDS_P1;SDS_P2;PMS_P1;PMS_P2;Temp;Humidity;BMP_temperature;BMP_pressure;BME280_temperature;BME280_humidity;BME280_pressure;Samples;Min_cycle;Max_cycle;Signal;HPM_P1;HPM_P2
2021/04/27 00:01:00;;;;;;;1.10;1.10;;;;;;;5.87;100.00;99627.84;5015743;28;20052;-74
2021/04/27 00:04:04;;;;;;;2.05;1.52;;;;;;;5.87;100.00;99627.84;5015445;28;20052;-74
2021/04/27 00:07:08;;;;;;;0.88;0.88;;;;;;;5.86;100.00;99626.34;5017914;28;20706;-74
2021/04/27 00:10:14;;;;;;;1.85;0.90;;;;;;;5.85;100.00;99630.31;5016043;28;20130;-77
2021/04/27 00:13:18;;;;;;;1.70;1.60;;;;;;;5.83;100.00;99616.13;5004002;28;20047;-77
2021/04/27 00:16:21;;;;;;;6.20;1.30;;;;;;;5.85;100.00;99613.72;5028178;28;20052;-76
2021/04/27 00:19:25;;;;;;;0.43;0.43;;;;;;;5.87;100.00;99611.28;5056274;28;20047;-78
2021/04/27 00:22:28;;;;;;;1.10;1.10;;;;;;;5.85;100.00;99597.13;5056326;28;20056;-76
2021/04/27 00:25:32;;;;;;;2.88;1.77;;;;;;;5.86;100.00;99609.75;5054481;28;20076;-76
2021/04/27 00:28:36;;;;;;;1.45;1.35;;;;;;;5.85;100.00;99594.38;5055712;28;20068;-76
2021/04/27 00:31:39;;;;;;;0.88;0.88;;;;;;;5.83;100.00;99588.50;5056704;28;20068;-77
2021/04/27 00:34:42;;;;;;;1.15;1.00;;;;;;;5.86;100.00;99598.69;5052497;28;20056;-76
2021/04/27 00:37:46;;;;;;;2.88;2.05;;;;;;;5.87;100.00;99594.69;5052796;28;20060;-73
2021/04/27 00:40:50;;;;;;;0.93;0.93;;;;;;;5.88;100.00;99596.25;5053317;28;20074;-73
2021/04/27 00:43:53;;;;;;;1.20;1.20;;;;;;;5.94;100.00;99580.63;5053079;28;20048;-74
2021/04/27 00:46:57;;;;;;;3.95;1.80;;;;;;;6.00;100.00;99587.13;5053576;28;20056;-73
2021/04/27 00:50:01;;;;;;;2.08;1.70;;;;;;;6.06;100.00;99579.78;5052474;28;20427;-73
2021/04/27 00:53:06;;;;;;;2.67;1.90;;;;;;;6.09;100.00;99580.88;5052985;28;20052;-73
2021/04/27 00:56:09;;;;;;;1.25;1.20;;;;;;;6.13;100.00;99573.22;5052568;28;20060;-73
2021/04/27 00:59:13;;;;;;;5.40;1.17;;;;;;;6.13;100.00;99569.69;5052604;28;20052;-73
2021/04/27 01:02:16;;;;;;;1.42;1.33;;;;;;;6.10;100.00;99563.84;5052638;28;20060;-73
2021/04/27 01:05:24;;;;;;;1.05;1.05;;;;;;;6.09;100.00;99565.06;5064131;28;20055;-73
2021/04/27 01:08:49;;;;;;;4.45;1.85;;;;;;;6.07;100.00;99570.28;5083089;28;20071;-73
2021/04/27 01:11:59;;;;;;;1.38;1.10;;;;;;;6.08;100.00;99571.81;5072683;28;20055;-73
2021/04/27 01:15:20;;;;;;;2.47;1.80;;;;;;;6.05;100.00;99567.19;5072387;28;20052;-74
2021/04/27 01:18:25;;;;;;;1.75;1.27;;;;;;;6.04;100.00;99568.41;5071784;28;20055;-73
2021/04/27 01:21:29;;;;;;;2.33;1.38;;;;;;;6.02;100.00;99568.09;5072606;28;20071;-73
2021/04/27 01:24:55;;;;;;;1.63;1.50;;;;;;;5.99;100.00;99568.22;5072691;28;20051;-73
2021/04/27 01:27:59;;;;;;;1.60;1.50;;;;;;;5.99;100.00;99568.22;5072401;28;20071;-73
2021/04/27 01:31:04;;;;;;;1.52;1.30;;;;;;;5.99;100.00;99559.94;5072120;28;20051;-73
2021/04/27 01:34:09;;;;;;;2.35;2.20;;;;;;;5.95;100.00;99562.06;5072100;28;20067;-74
2021/04/27 01:37:14;;;;;;;0.80;0.80;;;;;;;5.91;100.00;99551.13;5072233;28;20509;-73
2021/04/27 01:40:17;;;;;;;1.25;1.25;;;;;;;5.88;100.00;99542.97;5071427;28;20059;-75
2021/04/27 01:43:22;;;;;;;19.67;1.77;;;;;;;5.86;100.00;99548.19;5061399;28;20549;-73
2021/04/27 01:46:27;;;;;;;7.28;1.88;;;;;;;5.82;100.00;99540.00;5045165;28;20048;-74
2021/04/27 01:49:31;;;;;;;11.38;1.95;;;;;;;5.81;100.00;99543.97;5045950;28;20399;-73
2021/04/27 01:52:36;;;;;;;1.88;1.77;;;;;;;5.81;100.00;99541.22;5046447;28;20407;-73
2021/04/27 01:55:42;;;;;;;3.33;1.85;;;;;;;5.79;100.00;99538.13;5051917;28;20068;-74
2021/04/27 01:58:46;;;;;;;2.38;1.45;;;;;;;5.78;100.00;99538.59;5051365;28;20056;-76
2021/04/27 02:01:50;;;;;;;1.20;1.10;;;;;;;5.78;100.00;99536.56;5051203;28;20056;-76
2021/04/27 02:04:53;;;;;;;3.53;1.67;;;;;;;5.76;100.00;99533.50;5051359;28;20127;-76
2021/04/27 02:07:56;;;;;;;8.07;1.55;;;;;;;5.77;100.00;99526.75;5051320;28;20410;-76
2021/04/27 02:11:00;;;;;;;1.35;1.25;;;;;;;5.77;100.00;99523.22;5051344;28;20072;-76
2021/04/27 02:14:05;;;;;;;1.73;1.63;;;;;;;5.77;100.00;99515.72;5051097;28;20055;-77
2021/04/27 02:17:23;;;;;;;4.53;2.10;;;;;;;5.73;100.00;99511.53;5051038;28;20052;-77
2021/04/27 02:20:29;;;;;;;5.68;1.92;;;;;;;5.70;100.00;99502.16;5050692;28;20403;-76
2021/04/27 02:23:33;;;;;;;15.75;1.70;;;;;;;5.66;100.00;99501.50;5045324;28;20059;-77
2021/04/27 02:26:37;;;;;;;1.27;1.17;;;;;;;5.63;100.00;99502.41;5050885;28;20068;-76
2021/04/27 02:29:41;;;;;;;1.40;1.40;;;;;;;5.59;100.00;99496.25;5051159;28;20064;-76
2021/04/27 02:32:45;;;;;;;1.60;1.50;;;;;;;5.55;100.00;99492.84;5049990;28;20052;-76
2021/04/27 02:35:49;;;;;;;4.35;2.38;;;;;;;5.53;100.00;99489.75;5050333;28;20064;-76
2021/04/27 02:38:54;;;;;;;1.30;1.30;;;;;;;5.50;100.00;99482.38;5051297;28;20064;-76
2021/04/27 02:41:57;;;;;;;6.68;2.78;;;;;;;5.49;100.00;99489.13;5050991;28;20060;-76
2021/04/27 02:45:01;;;;;;;4.68;1.85;;;;;;;5.48;100.00;99484.81;5028938;28;20057;-77
2021/04/27 02:48:09;;;;;;;8.77;2.08;;;;;;;5.43;100.00;99487.41;5030774;28;20076;-77
2021/04/27 02:51:12;;;;;;;8.35;2.50;;;;;;;5.40;100.00;99491.81;5029868;28;20423;-76
2021/04/27 02:54:16;;;;;;;6.50;2.42;;;;;;;5.36;100.00;99489.19;5031199;28;20509;-77
2021/04/27 02:57:19;;;;;;;3.17;2.35;;;;;;;5.33;100.00;99475.50;5028734;28;20060;-77
2021/04/27 03:00:23;;;;;;;1.13;1.10;;;;;;;5.32;100.00;99476.75;5030643;28;20048;-76
2021/04/27 03:03:26;;;;;;;3.53;2.05;;;;;;;5.31;100.00;99472.41;5030998;28;20064;-76
2021/04/27 03:06:29;;;;;;;1.77;1.67;;;;;;;5.29;100.00;99458.28;5030414;28;20060;-76
2021/04/27 03:09:33;;;;;;;0.80;0.80;;;;;;;5.29;100.00;99455.53;5030789;28;20048;-76
2021/04/27 03:12:36;;;;;;;2.10;1.85;;;;;;;5.30;100.00;99446.81;5041392;28;20060;-76
2021/04/27 03:15:40;;;;;;;2.60;1.70;;;;;;;5.32;100.00;99443.59;5030841;28;20068;-76
2021/04/27 03:18:43;;;;;;;10.30;2.03;;;;;;;5.27;100.00;99438.66;5030504;28;20056;-76
2021/04/27 03:21:47;;;;;;;2.03;1.58;;;;;;;5.23;100.00;99424.22;5030023;28;20061;-76
2021/04/27 03:24:50;;;;;;;2.75;1.55;;;;;;;5.18;100.00;99422.81;5029955;28;20139;-75
2021/04/27 03:27:54;;;;;;;8.70;2.13;;;;;;;5.14;100.00;99421.38;5030245;28;20056;-76
2021/04/27 03:30:58;;;;;;;4.63;3.00;;;;;;;5.11;100.00;99412.00;5030586;28;20530;-76
2021/04/27 03:34:02;;;;;;;1.90;1.65;;;;;;;5.16;100.00;99418.94;5030075;28;20526;-76
2021/04/27 03:37:05;;;;;;;1.85;1.27;;;;;;;5.16;100.00;99407.91;5030472;28;20056;-76
2021/04/27 03:40:10;;;;;;;10.88;1.90;;;;;;;5.14;100.00;99405.59;5030163;28;20057;-76
2021/04/27 03:43:14;;;;;;;5.07;1.98;;;;;;;5.10;100.00;99393.94;5040124;28;20526;-76
2021/04/27 03:46:17;;;;;;;2.35;1.33;;;;;;;5.07;100.00;99396.78;5049678;28;20064;-77
2021/04/27 03:49:21;;;;;;;1.33;1.17;;;;;;;5.01;100.00;99395.84;5050452;28;20120;-76
2021/04/27 03:52:24;;;;;;;2.22;1.58;;;;;;;4.95;100.00;99381.09;5050430;28;20056;-76
2021/04/27 03:55:28;;;;;;;1.40;1.30;;;;;;;4.92;100.00;99387.50;5037953;28;20108;-75
2021/04/27 03:58:32;;;;;;;2.83;2.10;;;;;;;4.87;100.00;99377.81;5050272;28;20056;-76
2021/04/27 04:01:36;;;;;;;1.58;1.17;;;;;;;4.84;100.00;99381.47;5050378;28;20056;-76
2021/04/27 04:04:39;;;;;;;1.63;1.52;;;;;;;4.82;100.00;99383.13;5050304;28;20052;-76
2021/04/27 04:07:43;;;;;;;1.10;1.10;;;;;;;4.80;100.00;99380.81;5050126;28;20116;-76
2021/04/27 04:10:46;;;;;;;3.60;2.00;;;;;;;4.79;100.00;99375.75;5053499;28;20056;-76
2021/04/27 04:13:50;;;;;;;1.92;1.55;;;;;;;4.77;100.00;99383.69;5053363;28;20060;-76
2021/04/27 04:16:53;;;;;;;4.15;2.53;;;;;;;4.72;100.00;99367.75;5053597;28;20076;-76
2021/04/27 04:19:58;;;;;;;1.77;1.65;;;;;;;4.74;100.00;99370.81;5053669;28;20056;-76
2021/04/27 04:23:02;;;;;;;5.65;1.85;;;;;;;4.74;100.00;99365.31;5053425;28;20056;-76
2021/04/27 04:26:05;;;;;;;2.85;1.70;;;;;;;4.75;100.00;99366.81;5053446;28;20064;-76
2021/04/27 04:29:08;;;;;;;4.68;2.40;;;;;;;4.75;100.00;99361.31;5052318;28;20530;-76
2021/04/27 04:32:13;;;;;;;4.55;2.85;;;;;;;4.78;100.00;99363.97;5053075;28;20525;-76
2021/04/27 04:35:19;;;;;;;2.00;1.73;;;;;;;4.79;100.00;99367.47;5033272;28;20053;-76
2021/04/27 04:38:23;;;;;;;4.15;2.50;;;;;;;4.80;100.00;99364.28;5025153;28;20056;-76
2021/04/27 04:41:27;;;;;;;4.88;2.75;;;;;;;4.80;100.00;99358.75;5021269;28;20052;-76
2021/04/27 04:44:30;;;;;;;1.58;1.40;;;;;;;4.79;100.00;99351.69;5013301;28;20423;-76
2021/04/27 04:47:34;;;;;;;2.45;1.65;;;;;;;4.76;100.00;99352.59;5014050;28;20526;-77
2021/04/27 04:50:38;;;;;;;2.33;2.03;;;;;;;4.71;100.00;99350.41;5013497;28;20077;-76
2021/04/27 04:53:42;;;;;;;3.08;2.30;;;;;;;4.69;100.00;99352.06;5012772;28;20057;-76
2021/04/27 04:56:46;;;;;;;2.55;2.10;;;;;;;4.68;100.00;99345.03;5012417;28;20049;-76
2021/04/27 04:59:50;;;;;;;4.57;1.85;;;;;;;4.68;100.00;99350.56;5013174;28;20076;-76
2021/04/27 05:02:53;;;;;;;8.45;2.75;;;;;;;4.69;100.00;99349.31;5014037;28;20057;-77
2021/04/27 05:05:57;;;;;;;6.38;2.72;;;;;;;4.75;100.00;99344.75;5012543;28;20061;-77
2021/04/27 05:09:00;;;;;;;3.63;2.17;;;;;;;4.79;100.00;99345.41;5012923;28;20149;-76
2021/04/27 05:12:05;;;;;;;3.80;2.78;;;;;;;4.82;100.00;99341.75;5001004;28;20045;-76
2021/04/27 05:15:10;;;;;;;1.90;1.75;;;;;;;4.85;100.00;99344.38;5012280;28;20053;-82
2021/04/27 05:18:15;;;;;;;3.45;2.15;;;;;;;4.90;100.00;99340.28;5000888;28;20057;-77
2021/04/27 05:21:18;;;;;;;3.55;2.28;;;;;;;4.95;100.00;99334.19;5011759;28;20073;-77
2021/04/27 05:24:22;;;;;;;2.40;2.15;;;;;;;5.01;100.00;99341.44;5012485;28;20052;-77
2021/04/27 05:27:25;;;;;;;1.98;1.48;;;;;;;5.09;100.00;99341.94;5012359;28;20108;-77
2021/04/27 05:30:29;;;;;;;2.90;2.13;;;;;;;5.16;100.00;99341.66;5012295;28;20539;-77
2021/04/27 05:33:33;;;;;;;1.70;1.60;;;;;;;5.24;100.00;99326.41;5017614;28;20052;-78
2021/04/27 05:36:36;;;;;;;1.70;1.52;;;;;;;5.33;100.00;99326.41;5031094;28;20073;-77
2021/04/27 05:39:40;;;;;;;2.80;1.45;;;;;;;5.38;100.00;99325.84;5030665;28;20064;-76
2021/04/27 05:42:44;;;;;;;10.00;3.47;;;;;;;5.47;100.00;99327.88;5036093;28;20074;-76
2021/04/27 05:45:47;;;;;;;3.03;2.38;;;;;;;5.55;100.00;99323.59;5039452;28;20052;-76
2021/04/27 05:48:51;;;;;;;6.18;3.00;;;;;;;5.65;100.00;99322.44;5051015;28;20063;-76
2021/04/27 05:51:54;;;;;;;2.17;1.73;;;;;;;5.72;100.00;99322.91;5051128;28;20080;-76
2021/04/27 05:54:58;;;;;;;2.53;2.40;;;;;;;5.80;100.00;99315.88;5051783;28;20407;-76
2021/04/27 05:58:01;;;;;;;4.50;1.90;;;;;;;5.92;100.00;99317.78;5051335;28;20064;-76
2021/04/27 06:01:05;;;;;;;3.83;2.00;;;;;;;6.02;100.00;99308.28;5052292;28;20502;-76
2021/04/27 06:04:08;;;;;;;4.95;2.80;;;;;;;6.10;100.00;99309.53;5051372;28;20529;-76
2021/04/27 06:07:12;;;;;;;8.68;2.30;;;;;;;6.21;100.00;99319.38;5051203;28;20059;-78
2021/04/27 06:10:15;;;;;;;2.53;1.63;;;;;;;6.26;100.00;99321.53;5051570;28;20067;-77
2021/04/27 06:13:18;;;;;;;3.03;1.95;;;;;;;6.28;100.00;99308.03;5050499;28;20056;-76
2021/04/27 06:16:23;;;;;;;4.05;2.05;;;;;;;6.31;100.00;99307.09;5052296;28;20047;-76
2021/04/27 06:19:27;;;;;;;1.83;1.63;;;;;;;6.35;100.00;99304.94;5051118;28;20048;-76
2021/04/27 06:22:30;;;;;;;10.98;1.75;;;;;;;6.41;100.00;99311.41;5050976;28;20060;-76
2021/04/27 06:25:34;;;;;;;3.88;2.38;;;;;;;6.48;100.00;99309.09;5051292;28;20076;-76
2021/04/27 06:28:38;;;;;;;8.30;1.85;;;;;;;6.54;100.00;99298.94;5051026;28;20060;-76
2021/04/27 06:31:41;;;;;;;2.28;2.00;;;;;;;6.63;100.00;99300.94;5050973;28;20056;-77
2021/04/27 06:34:45;;;;;;;2.33;1.63;;;;;;;6.72;100.00;99296.16;5050669;28;20522;-78
2021/04/27 06:37:48;;;;;;;7.45;2.25;;;;;;;6.80;100.00;99299.38;5050524;28;20048;-78
2021/04/27 06:40:52;;;;;;;3.83;1.83;;;;;;;6.91;100.00;99299.66;5050811;28;20060;-78
2021/04/27 06:43:56;;;;;;;10.57;2.78;;;;;;;6.99;100.00;99291.81;5050447;28;20522;-78
2021/04/27 06:47:00;;;;;;;1.95;1.75;;;;;;;7.14;100.00;99296.25;5068890;28;20059;-76
2021/04/27 06:50:05;;;;;;;2.17;1.50;;;;;;;7.24;100.00;99294.22;5070746;28;20068;-75
2021/04/27 06:53:09;;;;;;;1.98;1.30;;;;;;;7.37;100.00;99292.78;5069989;28;20063;-75
2021/04/27 06:56:14;;;;;;;2.15;1.90;;;;;;;7.48;100.00;99293.06;5070440;28;20437;-76
2021/04/27 06:59:20;;;;;;;0.88;0.88;;;;;;;7.62;100.00;99289.59;5047069;28;20056;-77
2021/04/27 07:02:24;;;;;;;12.05;2.42;;;;;;;7.76;100.00;99290.13;5053306;28;20051;-77
2021/04/27 07:05:28;;;;;;;3.50;0.98;;;;;;;7.82;100.00;99282.75;5055501;28;20060;-78
2021/04/27 07:08:32;;;;;;;2.13;0.95;;;;;;;7.91;100.00;99285.44;5049251;28;20057;-72
2021/04/27 07:11:35;;;;;;;2.28;1.65;;;;;;;7.93;100.00;99277.41;5058161;28;20068;-73
2021/04/27 07:14:39;;;;;;;2.40;1.20;;;;;;;7.97;100.00;99278.78;5051111;28;20056;-76
2021/04/27 07:17:43;;;;;;;2.08;1.67;;;;;;;8.09;100.00;99285.31;5041187;28;20067;-79
2021/04/27 07:20:47;;;;;;;3.63;1.80;;;;;;;8.23;100.00;99281.81;5050315;28;20059;-77
2021/04/27 07:23:50;;;;;;;1.25;1.15;;;;;;;8.31;100.00;99281.06;5049739;28;20529;-76
2021/04/27 07:26:54;;;;;;;16.08;3.50;;;;;;;8.31;100.00;99269.19;5050117;28;20056;-77
2021/04/27 07:29:58;;;;;;;8.50;1.42;;;;;;;8.30;100.00;99273.19;5050036;28;20056;-77
2021/04/27 07:33:02;;;;;;;4.43;1.15;;;;;;;8.30;100.00;99273.19;5050603;28;20060;-77
2021/04/27 07:36:05;;;;;;;8.68;2.65;;;;;;;8.37;100.00;99261.72;5050257;28;20060;-76
2021/04/27 07:39:10;;;;;;;2.35;1.50;;;;;;;8.48;100.00;99261.16;5037504;28;20071;-76
2021/04/27 07:42:13;;;;;;;1.33;1.23;;;;;;;8.57;100.00;99261.09;5050295;28;20056;-76
2021/04/27 07:45:17;;;;;;;4.22;1.45;;;;;;;8.72;100.00;99251.56;5054101;28;20052;-75
2021/04/27 07:48:20;;;;;;;6.28;1.70;;;;;;;8.90;100.00;99254.13;5053847;28;20534;-76
2021/04/27 07:51:24;;;;;;;5.70;1.42;;;;;;;9.07;100.00;99248.88;5054019;28;20060;-76
2021/04/27 07:54:27;;;;;;;5.07;1.13;;;;;;;9.13;100.00;99250.50;5041568;28;20053;-77
2021/04/27 07:57:31;;;;;;;3.22;1.85;;;;;;;9.13;100.00;99244.94;5053641;28;20052;-76
2021/04/27 08:00:34;;;;;;;3.78;1.13;;;;;;;9.08;100.00;99253.94;5054540;28;20052;-78
2021/04/27 08:03:38;;;;;;;9.82;2.00;;;;;;;9.03;100.00;99245.53;5057523;28;20064;-77
2021/04/27 08:06:42;;;;;;;1.38;1.27;;;;;;;8.97;100.00;99242.63;5054826;28;20060;-77
2021/04/27 08:09:46;;;;;;;2.42;1.50;;;;;;;8.99;100.00;99239.38;5055221;28;20056;-77
2021/04/27 08:12:50;;;;;;;14.18;3.03;;;;;;;9.08;100.00;99242.06;5054121;28;20061;-77
2021/04/27 08:15:54;;;;;;;3.83;1.70;;;;;;;9.21;100.00;99248.09;5058075;28;20039;-77
2021/04/27 08:18:58;;;;;;;4.82;1.60;;;;;;;9.29;100.00;99242.91;5062375;28;20052;-76
2021/04/27 08:22:05;;;;;;;1.30;0.70;;;;;;;9.29;100.00;99251.25;5055746;28;20067;-78
2021/04/27 08:25:09;;;;;;;5.40;2.17;;;;;;;9.32;100.00;99244.72;5053809;28;20052;-76
2021/04/27 08:28:13;;;;;;;11.65;1.42;;;;;;;9.38;100.00;99242.78;5052799;28;20056;-75
2021/04/27 08:31:16;;;;;;;2.30;1.23;;;;;;;9.40;100.00;99232.72;5052945;28;20052;-76
2021/04/27 08:34:20;;;;;;;5.82;1.48;;;;;;;9.44;100.00;99240.88;5052722;28;20060;-75
2021/04/27 08:37:23;;;;;;;2.25;1.33;;;;;;;9.43;100.00;99239.31;5052847;28;20056;-76
2021/04/27 08:40:27;;;;;;;2.72;0.82;;;;;;;9.43;100.00;99234.53;5053420;28;20056;-76
2021/04/27 08:43:31;;;;;;;2.30;1.25;;;;;;;9.47;100.00;99237.88;5053004;28;20056;-76
2021/04/27 08:46:36;;;;;;;0.50;0.30;;;;;;;9.45;100.00;99236.81;5053655;28;20053;-79
2021/04/27 08:49:40;;;;;;;4.60;0.50;;;;;;;9.42;100.00;99233.00;5052888;28;20063;-77
2021/04/27 08:52:45;;;;;;;0.95;0.52;;;;;;;9.47;100.00;99235.09;5052779;28;20052;-74
2021/04/27 08:55:49;;;;;;;1.55;0.73;;;;;;;9.59;100.00;99236.81;5052077;28;20136;-74
2021/04/27 08:58:52;;;;;;;1.52;0.63;;;;;;;9.71;100.00;99232.16;5052319;28;20518;-74
2021/04/27 09:01:56;;;;;;;0.45;0.45;;;;;;;9.87;100.00;99239.97;5052954;28;20056;-74
2021/04/27 09:04:59;;;;;;;0.35;0.35;;;;;;;9.99;100.00;99235.28;5052881;28;20052;-73
2021/04/27 09:08:03;;;;;;;0.98;0.65;;;;;;;10.04;100.00;99243.72;5052295;28;20060;-73
2021/04/27 09:11:32;;;;;;;1.73;0.45;;;;;;;10.05;100.00;99230.59;5052122;28;20399;-72
2021/04/27 09:14:38;;;;;;;0.98;0.52;;;;;;;10.02;100.00;99234.34;5051803;28;20407;-74
2021/04/27 09:17:41;;;;;;;2.63;0.40;;;;;;;9.97;100.00;99232.22;5053113;28;20052;-74
2021/04/27 09:20:50;;;;;;;1.23;0.55;;;;;;;9.95;100.00;99235.50;5057055;28;20064;-77
2021/04/27 09:23:53;;;;;;;3.47;0.60;;;;;;;9.87;100.00;99228.84;5071214;28;20052;-75
2021/04/27 09:26:57;;;;;;;1.08;0.70;;;;;;;9.85;100.00;99237.66;5072157;28;20406;-74
2021/04/27 09:30:23;;;;;;;0.85;0.50;;;;;;;9.81;100.00;99225.97;5072299;28;20056;-73
2021/04/27 09:33:27;;;;;;;5.57;0.40;;;;;;;9.82;100.00;99237.88;5071789;28;20055;-73
2021/04/27 09:36:37;;;;;;;0.63;0.20;;;;;;;9.76;100.00;99228.69;5072091;28;20067;-75
2021/04/27 09:39:48;;;;;;;0.35;0.35;;;;;;;9.76;100.00;99231.47;5072038;28;20055;-74
2021/04/27 09:43:03;;;;;;;0.20;0.20;;;;;;;9.75;100.00;99238.25;5064887;28;20052;-73
2021/04/27 09:46:09;;;;;;;1.65;0.40;;;;;;;9.74;100.00;99225.63;5052403;28;20055;-74
2021/04/27 09:49:28;;;;;;;0.70;0.57;;;;;;;9.75;100.00;99232.72;5052189;28;20059;-74
2021/04/27 09:52:46;;;;;;;1.85;0.30;;;;;;;9.75;100.00;99227.16;5045157;28;20060;-74
2021/04/27 09:55:50;;;;;;;0.93;0.45;;;;;;;9.83;100.00;99225.50;5048143;28;20055;-74
2021/04/27 09:59:10;;;;;;;7.53;0.90;;;;;;;9.94;100.00;99217.28;5051494;28;20060;-74
2021/04/27 10:02:13;;;;;;;0.75;0.63;;;;;;;10.02;100.00;99212.84;5051985;28;20060;-73
2021/04/27 10:05:17;;;;;;;0.30;0.30;;;;;;;10.10;100.00;99207.63;5050699;28;20067;-74
2021/04/27 10:08:24;;;;;;;0.60;0.30;;;;;;;10.17;100.00;99208.00;5052116;28;20060;-73
2021/04/27 10:11:28;;;;;;;0.77;0.25;;;;;;;10.31;100.00;99207.13;5052762;28;20048;-74
2021/04/27 10:14:32;;;;;;;0.80;0.40;;;;;;;10.46;100.00;99205.03;5046137;28;20057;-72
2021/04/27 10:17:35;;;;;;;0.43;0.22;;;;;;;10.49;100.00;99206.84;5045990;28;20067;-75
2021/04/27 10:20:39;;;;;;;1.52;0.57;;;;;;;10.50;100.00;99202.78;5041855;28;20051;-73
2021/04/27 10:23:49;;;;;;;4.40;0.30;;;;;;;10.61;100.00;99202.16;5070749;28;20055;-73
2021/04/27 10:26:54;;;;;;;0.17;0.10;;;;;;;10.66;100.00;99193.06;5070924;28;20616;-72
2021/04/27 10:30:17;;;;;;;8.43;0.25;;;;;;;10.89;100.00;99199.63;5071050;28;20056;-71
2021/04/27 10:33:25;;;;;;;0.68;0.43;;;;;;;11.08;100.00;99195.22;5070758;28;20060;-71
2021/04/27 10:36:30;;;;;;;0.85;0.32;;;;;;;11.23;100.00;99199.38;5070973;28;20052;-72
2021/04/27 10:39:39;;;;;;;1.48;0.30;;;;;;;11.29;100.00;99188.25;5070434;28;20060;-72
2021/04/27 10:42:43;;;;;;;0.10;0.10;;;;;;;11.35;100.00;99189.06;5064627;28;20044;-73
2021/04/27 10:45:46;;;;;;;0.47;0.32;;;;;;;11.21;100.00;99176.06;5047338;28;20052;-74
2021/04/27 10:48:50;;;;;;;0.75;0.30;;;;;;;11.16;100.00;99185.13;5050657;28;20068;-75
2021/04/27 10:51:55;;;;;;;1.40;0.68;;;;;;;11.07;100.00;99179.72;5049283;28;20557;-75
2021/04/27 10:55:37;;;;;;;0.80;0.57;;;;;;;11.15;100.00;99180.81;5050802;28;20051;-75
2021/04/27 10:58:54;;;;;;;0.52;0.30;;;;;;;11.08;100.00;99179.25;4949601;28;20522;-76
2021/04/27 11:02:20;;;;;;;1.13;0.30;;;;;;;11.08;100.00;99172.91;4957852;28;20493;-75
2021/04/27 11:05:24;;;;;;;2.47;0.47;;;;;;;11.20;100.00;99168.94;5043059;28;20056;-76
2021/04/27 11:08:49;;;;;;;6.95;0.50;;;;;;;11.30;100.00;99179.41;5042891;28;20430;-76
2021/04/27 11:11:53;;;;;;;1.05;0.40;;;;;;;11.41;100.00;99167.56;5050007;28;20064;-78
2021/04/27 11:14:59;;;;;;;4.18;1.95;;;;;;;11.47;100.00;99173.94;5037676;28;20056;-77
2021/04/27 11:18:10;;;;;;;0.40;0.40;;;;;;;11.41;100.00;99173.91;5050337;28;20052;-75
2021/04/27 11:21:13;;;;;;;3.13;0.77;;;;;;;11.41;100.00;99167.56;5050465;28;20052;-76
2021/04/27 11:24:38;;;;;;;1.35;0.88;;;;;;;11.42;100.00;99169.09;5049519;28;20051;-76
2021/04/27 11:27:42;;;;;;;2.10;0.45;;;;;;;11.41;100.00;99167.56;5049888;28;20534;-77
2021/04/27 11:30:47;;;;;;;5.68;0.85;;;;;;;11.48;100.00;99167.09;5046739;28;20040;-76
2021/04/27 11:34:01;;;;;;;5.63;1.33;;;;;;;11.59;100.00;99161.56;5037359;28;20068;-75
2021/04/27 11:37:06;;;;;;;3.60;0.47;;;;;;;11.58;100.00;99164.88;5050045;28;20076;-75
2021/04/27 11:40:35;;;;;;;3.47;0.52;;;;;;;11.52;100.00;99167.63;5050449;28;20537;-75
2021/04/27 11:43:38;;;;;;;3.10;0.70;;;;;;;11.42;100.00;99163.50;5048903;28;20052;-74
2021/04/27 11:46:55;;;;;;;6.72;1.48;;;;;;;11.23;100.00;99163.16;5050335;28;20068;-76
2021/04/27 11:50:13;;;;;;;4.82;1.63;;;;;;;11.15;100.00;99155.75;5037797;28;20060;-76
2021/04/27 11:53:18;;;;;;;4.22;0.88;;;;;;;11.02;100.00;99163.75;5054425;28;20052;-75
2021/04/27 11:56:22;;;;;;;2.17;0.30;;;;;;;10.96;100.00;99171.31;5051672;28;20076;-75
2021/04/27 11:59:26;;;;;;;1.15;0.50;;;;;;;10.95;100.00;99158.63;5060208;28;20051;-75
2021/04/27 12:02:36;;;;;;;1.10;0.73;;;;;;;11.00;100.00;99163.50;5061918;28;20067;-74
2021/04/27 12:05:39;;;;;;;1.30;0.57;;;;;;;11.02;100.00;99164.50;5028973;28;20056;-77
2021/04/27 12:08:48;;;;;;;1.52;0.38;;;;;;;11.05;100.00;99162.75;5029324;28;20072;-74
2021/04/27 12:11:52;;;;;;;1.30;0.60;;;;;;;11.22;100.00;99155.28;5016544;28;20057;-78
2021/04/27 12:14:58;;;;;;;0.95;0.85;;;;;;;11.46;100.00;99157.72;5048970;28;20056;-79
2021/04/27 12:18:08;;;;;;;0.55;0.40;;;;;;;11.65;100.00;99159.56;5049220;28;20052;-76
2021/04/27 12:21:24;;;;;;;1.17;0.40;;;;;;;11.86;100.00;99152.63;5036658;28;20068;-77
2021/04/27 12:24:39;;;;;;;2.55;0.40;;;;;;;12.08;100.00;99152.66;5048116;28;20124;-78
2021/04/27 12:27:42;;;;;;;3.40;0.32;;;;;;;12.32;100.00;99151.50;5048987;28;20064;-77
2021/04/27 12:30:46;;;;;;;3.15;0.60;;;;;;;12.33;100.00;99150.97;5051692;28;20064;-75
2021/04/27 12:33:57;;;;;;;0.68;0.35;;;;;;;12.41;100.00;99148.47;5047907;28;20060;-78
2021/04/27 12:37:01;;;;;;;0.43;0.20;;;;;;;12.62;100.00;99150.53;5072414;28;20059;-76
2021/04/27 12:40:14;;;;;;;0.75;0.20;;;;;;;12.71;100.00;99147.47;5072347;28;20055;-72
2021/04/27 12:43:27;;;;;;;3.03;0.20;;;;;;;12.77;100.00;99144.69;5071698;28;20075;-73
2021/04/27 12:46:31;;;;;;;2.70;0.32;;;;;;;12.80;100.00;99140.84;5072462;28;20087;-74
2021/04/27 12:49:34;;;;;;;1.05;0.50;;;;;;;12.94;100.00;99137.81;5072139;28;20115;-75
2021/04/27 12:52:53;;;;;;;0.35;0.20;;;;;;;13.04;100.00;99146.69;5040175;28;20064;-74
2021/04/27 12:55:56;;;;;;;0.40;0.30;;;;;;;13.03;100.00;99136.81;5052331;28;20055;-73
2021/04/27 12:59:11;;;;;;;0.35;0.20;;;;;;;13.03;100.00;99134.00;5039594;28;20056;-74
2021/04/27 13:02:16;;;;;;;0.30;0.10;;;;;;;13.09;100.00;99129.19;5052571;28;20075;-76
2021/04/27 13:05:25;;;;;;;0.30;0.30;;;;;;;13.20;100.00;99120.78;5050861;28;20056;-73
2021/04/27 13:08:29;;;;;;;0.20;0.17;;;;;;;13.27;100.00;99125.09;5051695;28;20060;-75
2021/04/27 13:11:33;;;;;;;7.57;0.55;;;;;;;13.27;100.00;99120.28;5052217;28;20055;-75
2021/04/27 13:14:39;;;;;;;0.50;0.13;;;;;;;13.38;100.00;99123.03;5051923;28;20521;-74
2021/04/27 13:17:44;;;;;;;0.20;0.20;;;;;;;13.49;100.00;99114.59;5052319;28;20056;-74
2021/04/27 13:20:51;;;;;;;0.10;0.10;;;;;;;13.65;100.00;99116.59;5051288;28;20539;-73
2021/04/27 13:24:11;;;;;;;0.52;0.30;;;;;;;13.79;100.00;99122.41;5051377;28;20541;-75
2021/04/27 13:27:24;;;;;;;0.50;0.10;;;;;;;13.56;100.00;99118.91;5051434;28;20044;-74
2021/04/27 13:30:30;;;;;;;3.20;0.17;;;;;;;13.55;100.00;99118.16;5051497;28;20056;-74
2021/04/27 13:33:42;;;;;;;0.80;0.15;;;;;;;13.52;100.00;99113.59;5056282;28;20056;-74
2021/04/27 13:36:46;;;;;;;0.20;0.10;;;;;;;13.50;100.00;99112.56;5063232;28;20047;-74
2021/04/27 13:39:49;;;;;;;0.20;0.10;;;;;;;13.52;100.00;99110.78;5067655;28;20056;-76
2021/04/27 13:43:06;;;;;;;2.08;0.10;;;;;;;13.67;100.00;99107.69;5058808;28;20413;-79
2021/04/27 13:46:12;;;;;;;1.05;0.13;;;;;;;13.72;100.00;99103.34;5071260;28;20044;-77
2021/04/27 13:49:16;;;;;;;0.40;0.10;;;;;;;13.76;100.00;99099.00;5070951;28;20067;-78
2021/04/27 13:52:19;;;;;;;0.13;0.13;;;;;;;13.94;100.00;99104.00;5052757;28;20056;-78
2021/04/27 13:55:24;;;;;;;1.65;0.10;;;;;;;13.92;100.00;99095.38;5038527;28;20052;-78
2021/04/27 13:58:28;;;;;;;1.15;0.17;;;;;;;13.84;100.00;99102.03;5051043;28;20048;-78
2021/04/27 14:01:33;;;;;;;0.80;0.10;;;;;;;13.80;100.00;99101.50;5051579;28;20044;-78
2021/04/27 14:04:36;;;;;;;0.70;0.13;;;;;;;13.62;100.00;99094.50;5038471;28;20067;-77
2021/04/27 14:07:42;;;;;;;0.65;0.20;;;;;;;13.60;100.00;99086.59;5050695;28;20060;-77
2021/04/27 14:10:46;;;;;;;2.53;0.75;;;;;;;13.57;100.00;99090.44;5050542;28;20048;-77
2021/04/27 14:13:50;;;;;;;5.22;0.47;;;;;;;13.59;100.00;99096.28;5050013;28;20072;-77
2021/04/27 14:16:53;;;;;;;5.40;0.50;;;;;;;13.46;100.00;99093.28;5038850;28;20071;-78
2021/04/27 14:19:57;;;;;;;0.20;0.10;;;;;;;13.42;100.00;99087.19;5050391;28;20064;-78
2021/04/27 14:23:04;;;;;;;0.10;0.00;;;;;;;13.36;100.00;99082.88;5050271;28;20056;-76
2021/04/27 14:26:08;;;;;;;0.10;0.00;;;;;;;13.23;100.00;99075.00;5050473;28;20419;-77
2021/04/27 14:29:11;;;;;;;0.35;0.20;;;;;;;13.06;100.00;99065.91;5050347;28;20057;-77
2021/04/27 14:32:14;;;;;;;0.17;0.17;;;;;;;13.10;100.00;99074.06;5050494;28;20055;-77